Time;durP1;ratioP1;P1;durP2;ratioP2;P2;SDS_P1;SDS_P2;PMS_P1;PMS_P2;Temp;Humidity;BMP_temperature;BMP_pressure;BME280_temperature;BME280_humidity;BME280_pressure;Samples;Min_cycle;Max_cycle;Signal;HPM_P1;HPM_P2
2023/09/21 00:00:59;;;;;;;8.65;1.25;;;10.30;99.90;;;;;;5131629;28;20345;-76
2023/09/21 00:03:28;;;;;;;3.70;1.33;;;10.20;99.90;;;;;;5131081;28;20023;-77
2023/09/21 00:05:55;;;;;;;5.72;1.05;;;10.20;99.90;;;;;;5131598;28;20432;-76
2023/09/21 00:08:22;;;;;;;4.03;1.58;;;10.20;99.90;;;;;;5130789;28;20023;-77
2023/09/21 00:10:50;;;;;;;3.05;1.00;;;10.20;99.90;;;;;;5131524;28;20028;-76
2023/09/21 00:13:16;;;;;;;10.75;1.70;;;10.20;99.90;;;;;;5130638;28;20050;-76
2023/09/21 00:15:43;;;;;;;5.47;0.98;;;10.20;99.90;;;;;;5131273;28;20027;-77
2023/09/21 00:18:08;;;;;;;6.47;1.30;;;10.20;99.90;;;;;;5130419;28;20056;-77
2023/09/21 00:20:43;;;;;;;4.82;1.50;;;10.20;99.90;;;;;;5131189;28;20482;-77
2023/09/21 00:23:11;;;;;;;5.63;1.23;;;10.20;99.90;;;;;;5130649;28;20072;-77
2023/09/21 00:25:38;;;;;;;5.50;1.27;;;10.10;99.90;;;;;;5131016;28;20042;-76
2023/09/21 00:28:12;;;;;;;7.57;1.30;;;10.10;99.90;;;;;;5130239;28;20381;-78
2023/09/21 00:30:41;;;;;;;4.70;1.27;;;10.10;99.90;;;;;;5131022;28;20044;-76
2023/09/21 00:33:08;;;;;;;7.25;1.40;;;10.10;99.90;;;;;;5132039;27;20464;-77
2023/09/21 00:35:40;;;;;;;3.85;1.60;;;10.00;99.90;;;;;;5134783;27;20042;-77
2023/09/21 00:38:09;;;;;;;6.10;1.15;;;10.00;99.90;;;;;;5134500;27;20069;-77
2023/09/21 00:40:39;;;;;;;4.72;1.23;;;10.00;99.90;;;;;;5135148;27;20151;-77
2023/09/21 00:43:12;;;;;;;3.00;1.23;;;10.00;99.90;;;;;;5134140;27;20472;-76
2023/09/21 00:45:43;;;;;;;3.45;1.30;;;10.00;99.90;;;;;;5134167;27;20134;-76
2023/09/21 00:48:11;;;;;;;3.08;1.23;;;10.00;99.90;;;;;;5115498;27;20568;-76
2023/09/21 00:50:38;;;;;;;3.50;1.10;;;10.00;99.90;;;;;;5134321;27;20487;-76
2023/09/21 00:53:05;;;;;;;4.38;1.70;;;9.90;99.90;;;;;;5115932;27;20027;-79
2023/09/21 00:55:38;;;;;;;6.18;1.70;;;9.90;99.90;;;;;;5134508;27;20105;-76
2023/09/21 00:58:05;;;;;;;3.55;1.38;;;10.00;99.90;;;;;;5134237;27;20409;-76
2023/09/21 01:00:32;;;;;;;5.55;1.20;;;10.00;99.90;;;;;;5134116;27;20024;-75
2023/09/21 01:03:07;;;;;;;2.20;1.20;;;9.90;99.90;;;;;;5134877;27;20031;-77
2023/09/21 01:05:36;;;;;;;5.78;1.40;;;10.00;99.90;;;;;;5134110;27;20467;-77
2023/09/21 01:08:05;;;;;;;7.05;1.40;;;9.90;99.90;;;;;;5115686;27;20161;-77
2023/09/21 01:10:33;;;;;;;3.72;1.00;;;9.90;99.90;;;;;;5133698;27;20030;-77
2023/09/21 01:12:59;;;;;;;5.63;1.52;;;9.80;99.90;;;;;;5133866;27;20105;-77
2023/09/21 01:15:24;;;;;;;7.13;1.15;;;9.90;99.90;;;;;;5133554;27;20172;-77
2023/09/21 01:17:50;;;;;;;4.55;1.33;;;9.80;99.90;;;;;;5134340;27;20065;-76
2023/09/21 01:20:23;;;;;;;2.72;1.10;;;9.80;99.90;;;;;;5133592;27;20122;-75
2023/09/21 01:23:19;;;;;;;3.78;1.08;;;9.90;99.90;;;;;;5134360;27;20340;-76
2023/09/21 01:25:49;;;;;;;5.28;1.08;;;9.90;99.90;;;;;;5120976;27;20162;-75
2023/09/21 01:28:22;;;;;;;6.53;1.25;;;9.90;99.90;;;;;;5134101;27;20081;-75
2023/09/21 01:30:51;;;;;;;5.53;1.55;;;9.90;99.90;;;;;;5134015;27;20027;-75
2023/09/21 01:33:17;;;;;;;10.98;1.60;;;9.80;99.90;;;;;;5133447;27;20390;-76
2023/09/21 01:35:43;;;;;;;3.88;1.25;;;9.80;99.90;;;;;;5134003;27;20038;-77
2023/09/21 01:38:12;;;;;;;8.13;1.33;;;9.80;99.90;;;;;;5114903;27;20080;-77
2023/09/21 01:40:38;;;;;;;9.63;1.48;;;9.80;99.90;;;;;;5133561;27;20037;-76
2023/09/21 01:43:06;;;;;;;4.25;1.08;;;9.80;99.90;;;;;;5133651;27;20030;-76
2023/09/21 01:45:33;;;;;;;3.05;1.38;;;9.80;99.90;;;;;;5133012;27;20061;-76
2023/09/21 01:48:00;;;;;;;4.82;1.42;;;9.80;99.90;;;;;;5133675;27;20026;-75
2023/09/21 01:50:28;;;;;;;6.07;1.00;;;9.80;99.90;;;;;;5132654;27;20028;-75
2023/09/21 01:52:55;;;;;;;6.38;1.52;;;9.80;99.90;;;;;;5133895;27;20055;-76
2023/09/21 01:55:21;;;;;;;9.23;1.77;;;9.70;99.90;;;;;;5132288;27;20045;-75
2023/09/21 01:57:47;;;;;;;5.45;1.42;;;9.70;99.90;;;;;;5133341;27;20461;-76
2023/09/21 02:00:22;;;;;;;10.10;1.38;;;9.70;99.90;;;;;;5132631;27;20165;-76
2023/09/21 02:02:48;;;;;;;4.50;1.20;;;9.70;99.90;;;;;;5133379;27;20063;-77
2023/09/21 02:05:15;;;;;;;12.80;1.60;;;9.70;99.90;;;;;;5114358;27;20027;-77
2023/09/21 02:07:44;;;;;;;7.85;1.30;;;9.60;99.90;;;;;;5133100;27;20031;-76
2023/09/21 02:10:10;;;;;;;8.70;1.90;;;9.60;99.90;;;;;;5132905;27;20126;-77
2023/09/21 02:12:38;;;;;;;4.97;1.30;;;9.60;99.90;;;;;;5133622;27;20031;-76
2023/09/21 02:15:10;;;;;;;5.93;1.23;;;9.60;99.90;;;;;;5132276;27;20023;-76
2023/09/21 02:17:41;;;;;;;8.43;1.63;;;9.60;99.90;;;;;;5114471;27;20105;-76
2023/09/21 02:20:16;;;;;;;5.53;1.55;;;9.60;99.90;;;;;;5132823;27;20027;-75
2023/09/21 02:22:48;;;;;;;6.68;1.42;;;9.60;99.90;;;;;;5132653;27;20144;-75
2023/09/21 02:25:16;;;;;;;5.97;1.33;;;9.60;99.90;;;;;;5113585;27;20076;-75
2023/09/21 02:27:50;;;;;;;8.00;1.70;;;9.60;99.90;;;;;;5132459;27;20031;-75
2023/09/21 02:30:22;;;;;;;6.63;1.95;;;9.60;99.90;;;;;;5132164;27;20023;-76
2023/09/21 02:32:54;;;;;;;3.30;1.30;;;9.60;99.90;;;;;;5133200;27;20023;-75
2023/09/21 02:35:27;;;;;;;2.30;1.13;;;9.60;99.90;;;;;;5132000;27;20031;-76
2023/09/21 02:37:57;;;;;;;7.28;1.27;;;9.70;99.90;;;;;;5132663;27;20094;-74
2023/09/21 02:40:24;;;;;;;3.70;1.40;;;9.80;99.90;;;;;;5132369;27;20414;-76
2023/09/21 02:42:53;;;;;;;5.65;1.65;;;9.80;99.90;;;;;;5132419;27;20072;-76
2023/09/21 02:45:24;;;;;;;6.10;1.50;;;9.80;99.90;;;;;;5131497;27;20027;-76
2023/09/21 02:47:51;;;;;;;6.32;1.42;;;9.80;99.90;;;;;;5132682;27;20035;-75
2023/09/21 02:50:21;;;;;;;10.60;1.33;;;9.80;99.90;;;;;;5132405;27;20022;-75
2023/09/21 02:53:06;;;;;;;5.80;1.20;;;9.90;99.90;;;;;;5143307;27;20088;-76
2023/09/21 02:55:33;;;;;;;3.70;1.30;;;9.90;99.90;;;;;;5133517;27;20092;-76
2023/09/21 02:58:15;;;;;;;6.60;1.20;;;9.90;99.90;;;;;;5132130;27;20032;-76
2023/09/21 03:00:45;;;;;;;4.65;1.60;;;9.90;99.90;;;;;;5132930;27;20026;-77
2023/09/21 03:03:15;;;;;;;6.22;1.33;;;9.90;99.90;;;;;;5132289;27;20114;-77
2023/09/21 03:05:47;;;;;;;5.40;1.75;;;9.90;99.90;;;;;;5132212;27;20024;-77
2023/09/21 03:08:15;;;;;;;5.50;1.42;;;9.90;99.90;;;;;;5131948;27;20440;-77
2023/09/21 03:10:43;;;;;;;9.57;1.73;;;10.00;99.90;;;;;;5132315;27;20550;-77
2023/09/21 03:13:17;;;;;;;5.10;1.25;;;10.00;99.90;;;;;;5132095;27;20107;-77
2023/09/21 03:15:47;;;;;;;4.20;1.33;;;10.00;99.90;;;;;;5132004;27;20123;-76
2023/09/21 03:18:14;;;;;;;3.53;1.15;;;10.00;99.90;;;;;;5113336;27;20067;-77
2023/09/21 03:20:40;;;;;;;2.45;1.17;;;10.00;99.90;;;;;;5131634;27;20035;-76
2023/09/21 03:23:11;;;;;;;4.47;1.50;;;10.10;99.90;;;;;;5131542;27;20361;-76
2023/09/21 03:25:41;;;;;;;4.38;1.17;;;10.00;99.90;;;;;;5131473;27;20106;-76
2023/09/21 03:28:14;;;;;;;2.90;1.33;;;10.00;99.90;;;;;;5131714;27;20106;-76
2023/09/21 03:30:48;;;;;;;4.75;1.40;;;10.10;99.90;;;;;;5131617;27;20027;-76
2023/09/21 03:33:15;;;;;;;4.05;1.23;;;10.00;99.90;;;;;;5131466;27;20027;-77
2023/09/21 03:35:41;;;;;;;6.28;1.33;;;10.00;99.90;;;;;;5112991;27;20023;-75
2023/09/21 03:38:14;;;;;;;5.65;1.20;;;10.00;99.90;;;;;;5131713;27;20107;-75
2023/09/21 03:40:41;;;;;;;5.70;1.20;;;10.00;99.90;;;;;;5131472;27;20023;-76
2023/09/21 03:43:10;;;;;;;7.88;1.73;;;9.90;99.90;;;;;;5131527;27;20027;-75
2023/09/21 03:45:37;;;;;;;3.75;1.30;;;9.90;99.90;;;;;;5130989;27;20100;-76
2023/09/21 03:48:06;;;;;;;6.47;1.58;;;9.80;99.90;;;;;;5131432;28;20416;-75
2023/09/21 03:50:32;;;;;;;4.57;1.70;;;9.90;99.90;;;;;;5131114;28;20332;-76
2023/09/21 03:53:04;;;;;;;6.43;1.33;;;9.80;99.90;;;;;;5131370;28;20344;-76
2023/09/21 03:55:30;;;;;;;6.85;1.70;;;9.70;99.90;;;;;;5130958;28;20035;-76
2023/09/21 03:57:56;;;;;;;3.80;1.50;;;9.80;99.90;;;;;;5131456;28;20042;-75
2023/09/21 04:03:03;;;;;;;4.70;1.70;;;9.70;99.90;;;;;;5131637;28;20041;-76
2023/09/21 04:05:31;;;;;;;3.90;1.23;;;9.70;99.90;;;;;;5131107;28;20169;-77
2023/09/21 04:07:57;;;;;;;3.92;1.33;;;9.70;99.90;;;;;;5132783;27;20027;-76
2023/09/21 04:10:23;;;;;;;6.97;2.05;;;9.60;99.90;;;;;;5135466;27;20102;-77
2023/09/21 04:12:55;;;;;;;4.65;1.25;;;9.60;99.90;;;;;;5135289;27;20053;-76
2023/09/21 04:15:22;;;;;;;3.15;1.40;;;9.50;99.90;;;;;;5135242;27;20069;-76
2023/09/21 04:17:47;;;;;;;6.45;1.45;;;9.50;99.90;;;;;;5135291;27;20074;-76
2023/09/21 04:20:15;;;;;;;5.25;1.35;;;9.50;99.90;;;;;;5135412;27;20436;-76
2023/09/21 04:22:42;;;;;;;7.00;0.98;;;9.40;99.90;;;;;;5134779;27;20023;-76
2023/09/21 04:25:10;;;;;;;6.55;1.00;;;9.40;99.90;;;;;;5116805;27;20482;-75
2023/09/21 04:27:39;;;;;;;6.47;1.48;;;9.40;99.90;;;;;;5134699;27;20034;-75
2023/09/21 04:30:08;;;;;;;5.35;1.40;;;9.30;99.90;;;;;;5135625;27;20159;-76
2023/09/21 04:32:36;;;;;;;5.32;1.70;;;9.30;99.90;;;;;;5134743;27;20019;-76
2023/09/21 04:35:06;;;;;;;11.75;1.58;;;9.30;99.90;;;;;;5135124;27;20079;-76
2023/09/21 04:37:35;;;;;;;4.70;1.33;;;9.20;99.90;;;;;;5134496;27;20375;-77
2023/09/21 04:40:11;;;;;;;4.80;1.40;;;9.20;99.90;;;;;;5135280;27;20045;-76
2023/09/21 04:42:42;;;;;;;5.60;1.48;;;9.20;99.90;;;;;;5115828;27;20027;-77
2023/09/21 04:45:10;;;;;;;4.57;1.48;;;9.20;99.90;;;;;;5135133;27;20388;-76
2023/09/21 04:47:41;;;;;;;5.68;1.65;;;9.10;99.90;;;;;;5115132;27;20172;-76
2023/09/21 04:50:09;;;;;;;6.97;1.67;;;9.10;99.90;;;;;;5134778;27;20420;-76
2023/09/21 04:52:35;;;;;;;8.88;2.00;;;9.00;99.90;;;;;;5133839;27;20041;-77
2023/09/21 04:55:08;;;;;;;3.97;1.20;;;8.90;99.90;;;;;;5134631;27;20030;-76
2023/09/21 04:57:34;;;;;;;6.63;1.58;;;8.90;99.90;;;;;;5134146;27;20035;-76
2023/09/21 05:00:00;;;;;;;6.10;1.50;;;8.80;99.90;;;;;;5134304;27;20054;-77
2023/09/21 05:02:26;;;;;;;4.82;1.42;;;8.80;99.90;;;;;;5134226;27;20034;-77
2023/09/21 05:04:52;;;;;;;6.32;1.88;;;8.80;99.90;;;;;;5116149;27;20027;-77
2023/09/21 05:07:18;;;;;;;6.68;1.73;;;8.80;99.90;;;;;;5134465;27;20036;-77
2023/09/21 05:09:45;;;;;;;5.97;1.60;;;8.80;99.90;;;;;;5133491;27;20026;-77
2023/09/21 05:12:18;;;;;;;7.10;1.90;;;8.80;99.90;;;;;;5134063;27;20032;-75
2023/09/21 05:14:47;;;;;;;;;;;8.70;99.90;;;;;;5133916;27;20495;-76
2023/09/21 05:17:21;;;;;;;5.88;1.92;;;8.80;99.90;;;;;;5134388;27;19903;-75
2023/09/21 05:19:46;;;;;;;4.97;1.77;;;8.80;99.90;;;;;;5133140;27;20091;-76
2023/09/21 05:22:12;;;;;;;6.82;2.45;;;8.70;99.90;;;;;;5133899;27;20524;-76
2023/09/21 05:24:39;;;;;;;4.22;1.83;;;8.80;99.90;;;;;;5133739;27;20113;-76
2023/09/21 05:27:06;;;;;;;10.07;2.03;;;8.70;99.90;;;;;;5133923;27;20042;-76
2023/09/21 05:29:32;;;;;;;4.47;1.90;;;8.70;99.90;;;;;;5132821;27;20527;-77
2023/09/21 05:31:57;;;;;;;5.68;1.67;;;8.70;99.90;;;;;;5133613;27;20106;-76
2023/09/21 05:34:26;;;;;;;4.05;2.03;;;8.70;99.90;;;;;;5133726;27;20027;-77
2023/09/21 05:36:53;;;;;;;4.18;2.55;;;8.70;99.90;;;;;;5115652;27;20086;-76
2023/09/21 05:39:19;;;;;;;2.65;1.67;;;8.60;99.90;;;;;;5133678;27;20031;-76
2023/09/21 05:41:48;;;;;;;6.63;2.42;;;8.60;99.90;;;;;;5133374;27;20054;-76
2023/09/21 05:44:13;;;;;;;3.72;1.98;;;8.60;99.90;;;;;;5133366;27;20026;-76
2023/09/21 05:46:40;;;;;;;7.13;1.88;;;8.60;99.90;;;;;;5132887;27;20055;-77
2023/09/21 05:49:07;;;;;;;8.88;2.85;;;8.50;99.90;;;;;;5134834;27;20024;-77
2023/09/21 05:51:35;;;;;;;6.40;2.40;;;8.40;99.90;;;;;;5132524;27;20085;-77
2023/09/21 05:54:01;;;;;;;6.95;2.78;;;8.30;99.90;;;;;;5134108;27;20049;-77
2023/09/21 05:56:27;;;;;;;9.85;2.72;;;8.30;99.90;;;;;;5132067;27;20030;-77
2023/09/21 05:58:53;;;;;;;9.60;3.15;;;8.30;99.90;;;;;;5133385;27;20072;-76
2023/09/21 06:01:18;;;;;;;12.20;2.85;;;8.20;99.90;;;;;;5132749;27;20075;-76
2023/09/21 06:03:44;;;;;;;8.30;2.88;;;8.20;99.90;;;;;;5132963;27;20023;-76
2023/09/21 06:06:10;;;;;;;5.25;2.80;;;8.10;99.90;;;;;;5133230;27;20088;-76
2023/09/21 06:08:39;;;;;;;6.05;2.45;;;8.20;99.90;;;;;;5132807;27;20061;-76
2023/09/21 06:11:04;;;;;;;6.18;2.55;;;8.20;99.90;;;;;;5133017;27;20132;-76
2023/09/21 06:13:31;;;;;;;5.07;2.58;;;8.20;99.90;;;;;;5132485;27;20109;-77
2023/09/21 06:15:58;;;;;;;8.23;3.08;;;8.20;99.90;;;;;;5133115;27;20079;-77
2023/09/21 06:18:25;;;;;;;9.73;3.00;;;8.20;99.90;;;;;;5132844;27;20047;-76
2023/09/21 06:20:53;;;;;;;10.00;2.85;;;8.30;99.90;;;;;;5132095;27;20044;-76
2023/09/21 06:23:18;;;;;;;8.73;2.85;;;8.20;99.90;;;;;;5133088;27;20030;-75
2023/09/21 06:25:46;;;;;;;5.57;2.63;;;8.30;99.90;;;;;;5132152;27;20019;-76
2023/09/21 06:28:11;;;;;;;7.25;2.95;;;8.30;99.90;;;;;;5132793;27;20102;-75
2023/09/21 06:30:37;;;;;;;5.85;2.50;;;8.30;99.90;;;;;;5130669;27;20118;-76
2023/09/21 06:33:04;;;;;;;8.43;2.28;;;8.30;99.90;;;;;;5132426;27;20031;-76
2023/09/21 06:35:29;;;;;;;12.23;3.85;;;8.30;99.90;;;;;;5131675;27;20031;-75
2023/09/21 06:37:55;;;;;;;7.72;3.35;;;8.30;99.90;;;;;;5132098;27;20338;-75
2023/09/21 06:40:23;;;;;;;7.53;2.70;;;8.30;99.90;;;;;;5132455;27;20110;-76
2023/09/21 06:42:50;;;;;;;5.90;2.55;;;8.30;99.90;;;;;;5131897;27;20465;-76
2023/09/21 06:45:15;;;;;;;5.95;2.38;;;8.30;99.90;;;;;;5132162;27;20027;-76
2023/09/21 06:47:42;;;;;;;4.97;2.67;;;8.30;99.90;;;;;;5131316;27;20038;-76
2023/09/21 06:50:14;;;;;;;3.97;2.33;;;8.40;99.90;;;;;;5132142;27;20023;-76
2023/09/21 06:52:40;;;;;;;6.00;2.38;;;8.40;99.90;;;;;;5131758;27;20055;-76
2023/09/21 06:55:06;;;;;;;7.43;3.15;;;8.50;99.90;;;;;;5132493;27;20136;-76
2023/09/21 06:57:34;;;;;;;6.82;2.50;;;8.70;99.90;;;;;;5131175;27;20496;-77
2023/09/21 07:00:01;;;;;;;9.80;2.70;;;8.80;99.90;;;;;;5132046;27;20031;-76
2023/09/21 07:02:26;;;;;;;8.30;2.40;;;9.00;99.90;;;;;;5113664;27;20023;-76
2023/09/21 07:04:53;;;;;;;5.97;2.00;;;9.10;99.90;;;;;;5131538;27;20113;-76
2023/09/21 07:07:20;;;;;;;8.20;2.53;;;9.20;99.90;;;;;;5131654;27;20049;-75
2023/09/21 07:09:46;;;;;;;10.93;2.63;;;9.20;99.90;;;;;;5131164;27;20026;-75
2023/09/21 07:12:12;;;;;;;9.18;2.42;;;9.30;99.90;;;;;;5131716;27;20019;-76
2023/09/21 07:14:38;;;;;;;9.10;2.13;;;9.50;99.90;;;;;;5131191;27;20052;-77
2023/09/21 07:17:05;;;;;;;6.35;1.90;;;9.40;99.90;;;;;;5131986;27;20114;-74
2023/09/21 07:19:31;;;;;;;3.58;1.73;;;9.40;99.90;;;;;;5131119;27;20098;-76
2023/09/21 07:21:58;;;;;;;7.03;2.78;;;9.40;99.90;;;;;;5131756;27;20030;-75
2023/09/21 07:24:24;;;;;;;8.65;2.40;;;9.40;99.90;;;;;;5131423;27;20023;-76
2023/09/21 07:26:50;;;;;;;5.57;2.13;;;9.40;99.90;;;;;;5131272;27;20087;-77
2023/09/21 07:29:17;;;;;;;5.70;2.30;;;9.50;99.90;;;;;;5131684;27;20475;-75
2023/09/21 07:31:43;;;;;;;9.70;2.17;;;9.50;99.90;;;;;;5130784;27;20159;-75
2023/09/21 07:34:09;;;;;;;6.25;2.30;;;9.50;99.90;;;;;;5113197;27;20023;-75
2023/09/21 07:36:36;;;;;;;5.47;1.83;;;9.50;99.90;;;;;;5112614;27;20080;-76
2023/09/21 07:39:03;;;;;;;5.13;2.17;;;9.50;99.90;;;;;;5112544;28;20028;-75
2023/09/21 07:41:29;;;;;;;8.85;2.17;;;9.60;99.90;;;;;;5111076;28;20026;-76
2023/09/21 07:43:55;;;;;;;6.72;2.17;;;9.70;99.90;;;;;;5110393;28;20055;-76
2023/09/21 07:46:21;;;;;;;7.65;2.47;;;9.70;99.90;;;;;;5110607;28;20043;-78
2023/09/21 07:48:49;;;;;;;6.38;2.13;;;9.70;99.90;;;;;;5110833;28;20035;-76
2023/09/21 07:51:16;;;;;;;4.63;2.03;;;10.00;99.90;;;;;;5111062;28;20107;-76
2023/09/21 07:53:43;;;;;;;4.47;1.75;;;10.20;99.90;;;;;;5110279;28;20031;-75
2023/09/21 07:56:12;;;;;;;4.32;1.60;;;10.30;99.90;;;;;;5110948;28;20054;-75
2023/09/21 07:58:38;;;;;;;4.63;1.70;;;10.50;99.90;;;;;;5092609;28;20024;-75
2023/09/21 08:01:04;;;;;;;6.78;1.63;;;10.60;99.90;;;;;;5110978;28;20394;-76
2023/09/21 08:03:30;;;;;;;6.38;1.60;;;10.80;99.90;;;;;;5111119;28;20028;-76
2023/09/21 08:05:56;;;;;;;7.53;1.38;;;11.00;99.90;;;;;;5110477;28;20047;-76
2023/09/21 08:08:24;;;;;;;5.53;1.58;;;11.20;99.90;;;;;;5111379;28;20380;-76
2023/09/21 08:10:51;;;;;;;5.57;1.42;;;11.40;99.90;;;;;;5110237;28;20111;-76
2023/09/21 08:13:17;;;;;;;5.47;1.42;;;11.60;99.90;;;;;;5092909;28;20457;-75
2023/09/21 08:15:43;;;;;;;3.33;1.55;;;11.70;99.90;;;;;;5110093;28;20031;-76
2023/09/21 08:18:12;;;;;;;6.15;1.55;;;11.90;99.90;;;;;;5111072;28;20457;-76
2023/09/21 08:20:41;;;;;;;4.20;1.15;;;12.10;99.90;;;;;;5109946;28;20483;-77
2023/09/21 08:23:07;;;;;;;6.88;1.30;;;12.00;99.90;;;;;;5111414;28;20402;-77
2023/09/21 08:25:34;;;;;;;2.65;1.15;;;12.20;99.90;;;;;;5131078;28;20095;-76
2023/09/21 08:28:00;;;;;;;3.25;1.33;;;12.30;99.90;;;;;;5131157;28;20085;-76
2023/09/21 08:30:26;;;;;;;5.88;1.38;;;12.30;99.90;;;;;;5131532;28;20055;-77
2023/09/21 08:32:52;;;;;;;4.32;1.30;;;12.40;99.90;;;;;;5130402;28;20448;-76
2023/09/21 08:35:18;;;;;;;6.35;1.95;;;12.50;99.90;;;;;;5131366;28;20088;-75
2023/09/21 08:37:43;;;;;;;2.78;1.20;;;12.60;99.90;;;;;;5130477;28;20417;-76
2023/09/21 08:40:10;;;;;;;4.78;1.60;;;12.60;99.90;;;;;;5131227;28;20037;-76
2023/09/21 08:42:37;;;;;;;4.30;1.65;;;12.70;99.90;;;;;;5131295;28;20038;-77
2023/09/21 08:45:08;;;;;;;4.10;1.20;;;12.70;99.90;;;;;;5130979;28;20023;-76
2023/09/21 08:47:34;;;;;;;3.60;1.20;;;12.80;99.90;;;;;;5131153;27;20082;-75
2023/09/21 08:50:07;;;;;;;4.70;1.15;;;12.90;99.90;;;;;;5130736;28;20023;-75
2023/09/21 08:52:34;;;;;;;4.97;1.40;;;13.00;99.90;;;;;;5131204;27;20027;-76
2023/09/21 08:55:00;;;;;;;5.72;1.25;;;13.00;99.90;;;;;;5133565;27;20023;-75
2023/09/21 08:57:25;;;;;;;9.45;1.35;;;13.00;99.90;;;;;;5134716;27;20076;-75
2023/09/21 08:59:54;;;;;;;4.82;1.50;;;13.00;99.90;;;;;;5134341;27;20054;-76
2023/09/21 09:02:20;;;;;;;3.03;1.13;;;13.10;99.90;;;;;;5135351;27;20510;-76
2023/09/21 09:04:46;;;;;;;5.57;1.20;;;13.10;99.90;;;;;;5134515;27;20137;-77
2023/09/21 09:07:12;;;;;;;3.67;1.17;;;13.10;99.90;;;;;;5134546;27;20122;-76
2023/09/21 09:09:39;;;;;;;5.47;0.95;;;13.20;99.90;;;;;;5134208;27;20156;-77
2023/09/21 09:12:25;;;;;;;5.35;1.23;;;13.10;99.90;;;;;;5134563;27;20023;-76
2023/09/21 09:14:52;;;;;;;5.93;1.05;;;13.20;99.90;;;;;;5133303;27;20034;-75
2023/09/21 09:17:18;;;;;;;4.07;1.20;;;13.20;99.90;;;;;;5134074;27;20115;-75
2023/09/21 09:19:46;;;;;;;6.72;1.10;;;13.30;99.90;;;;;;5133804;27;20088;-76
2023/09/21 09:22:16;;;;;;;3.88;1.30;;;13.20;99.90;;;;;;5134041;27;20023;-76
2023/09/21 09:24:45;;;;;;;4.75;1.33;;;13.30;99.90;;;;;;5133577;27;20023;-76
2023/09/21 09:27:11;;;;;;;3.92;1.33;;;13.30;99.90;;;;;;5133982;27;20027;-75
2023/09/21 09:29:57;;;;;;;4.72;1.00;;;13.30;99.90;;;;;;5133980;27;20019;-75
2023/09/21 09:32:23;;;;;;;4.63;1.10;;;13.40;99.90;;;;;;5133446;27;20106;-76
2023/09/21 09:34:49;;;;;;;5.40;1.25;;;13.40;99.90;;;;;;5133462;27;20160;-76
2023/09/21 09:37:17;;;;;;;6.47;1.38;;;13.50;99.90;;;;;;5134934;27;20464;-76
2023/09/21 09:39:45;;;;;;;2.78;1.05;;;13.40;99.90;;;;;;5134085;27;20449;-76
2023/09/21 09:42:14;;;;;;;2.97;1.33;;;13.50;99.90;;;;;;5134497;27;20023;-75
2023/09/21 09:44:44;;;;;;;6.40;1.15;;;13.40;99.90;;;;;;5134390;27;20027;-78
2023/09/21 09:47:14;;;;;;;3.05;1.17;;;13.50;99.90;;;;;;5115699;27;20448;-76
2023/09/21 09:49:46;;;;;;;3.42;1.25;;;13.50;99.90;;;;;;5134153;27;20027;-77
2023/09/21 09:52:18;;;;;;;4.78;1.00;;;13.60;99.90;;;;;;5134608;27;20027;-76
2023/09/21 09:54:47;;;;;;;3.20;0.98;;;13.60;99.90;;;;;;5134067;27;20030;-77
2023/09/21 09:57:13;;;;;;;2.75;0.95;;;13.60;99.90;;;;;;5134284;27;20388;-76
2023/09/21 09:59:41;;;;;;;4.28;1.15;;;13.60;99.90;;;;;;5134423;27;20272;-77
2023/09/21 10:02:11;;;;;;;2.38;0.80;;;13.60;99.90;;;;;;5134035;27;20023;-75
2023/09/21 10:04:39;;;;;;;4.88;1.27;;;13.60;99.90;;;;;;5135272;27;20031;-76
2023/09/21 10:07:06;;;;;;;4.20;1.20;;;13.60;99.90;;;;;;5133589;27;20092;-76
2023/09/21 10:09:32;;;;;;;3.85;1.15;;;13.70;99.90;;;;;;5134386;27;20038;-75
2023/09/21 10:12:03;;;;;;;3.00;1.10;;;13.70;99.90;;;;;;5133539;27;20022;-75
2023/09/21 10:14:33;;;;;;;4.30;1.10;;;13.80;99.90;;;;;;5134794;27;20027;-75
2023/09/21 10:17:04;;;;;;;4.18;0.80;;;13.70;99.90;;;;;;5134135;27;20043;-76
2023/09/21 10:19:30;;;;;;;2.35;1.00;;;13.90;99.90;;;;;;5134214;27;20049;-76
2023/09/21 10:21:59;;;;;;;2.40;0.73;;;13.80;99.90;;;;;;5133629;27;20027;-76
2023/09/21 10:24:29;;;;;;;3.45;1.10;;;13.70;99.90;;;;;;5134267;27;20023;-76
2023/09/21 10:27:01;;;;;;;4.22;1.15;;;13.70;99.90;;;;;;5133415;27;20043;-76
2023/09/21 10:29:32;;;;;;;7.22;1.00;;;13.70;99.90;;;;;;5134005;27;20034;-76
2023/09/21 10:32:04;;;;;;;5.18;1.40;;;13.80;99.90;;;;;;5115567;27;20027;-77
2023/09/21 10:34:31;;;;;;;7.47;1.40;;;13.80;99.90;;;;;;5133730;27;20042;-76
2023/09/21 10:37:10;;;;;;;1.85;1.00;;;13.80;99.90;;;;;;5132767;27;20429;-77
2023/09/21 10:39:37;;;;;;;7.75;1.42;;;13.90;99.90;;;;;;5133292;27;20062;-76
2023/09/21 10:42:06;;;;;;;6.10;1.40;;;13.90;99.90;;;;;;5114541;27;20035;-75
2023/09/21 10:44:59;;;;;;;3.83;1.58;;;13.90;99.90;;;;;;5133114;27;20027;-75
2023/09/21 10:47:33;;;;;;;3.58;1.23;;;13.90;99.90;;;;;;5133661;27;20051;-76
2023/09/21 10:50:04;;;;;;;3.33;1.55;;;13.90;99.90;;;;;;5114610;27;20031;-77
2023/09/21 10:52:31;;;;;;;4.47;1.40;;;14.00;99.90;;;;;;5133517;27;20043;-77
2023/09/21 10:54:57;;;;;;;6.35;1.80;;;14.00;99.90;;;;;;5132826;27;20102;-75
2023/09/21 10:57:27;;;;;;;5.97;2.75;;;14.00;99.90;;;;;;5133755;27;20091;-76
2023/09/21 10:59:55;;;;;;;4.25;2.08;;;14.00;99.90;;;;;;5133156;27;20028;-76
2023/09/21 11:02:22;;;;;;;6.38;2.30;;;14.00;99.90;;;;;;5133419;27;20019;-75
2023/09/21 11:04:52;;;;;;;2.97;1.13;;;14.00;99.90;;;;;;5132672;27;20520;-77
2023/09/21 11:07:21;;;;;;;6.97;1.27;;;14.00;99.90;;;;;;5133352;27;20039;-76
2023/09/21 11:09:48;;;;;;;1.20;0.75;;;14.00;99.90;;;;;;5132771;27;20027;-76
2023/09/21 11:12:14;;;;;;;2.85;1.20;;;14.00;99.90;;;;;;5133602;27;20384;-76
2023/09/21 11:14:47;;;;;;;6.10;1.30;;;14.10;99.90;;;;;;5133477;27;20035;-76
2023/09/21 11:17:16;;;;;;;4.15;0.98;;;14.10;99.90;;;;;;5132935;27;20030;-76
2023/09/21 11:19:43;;;;;;;3.72;1.02;;;14.20;99.90;;;;;;5133265;27;20023;-76
2023/09/21 11:22:10;;;;;;;3.95;1.50;;;14.30;99.90;;;;;;5132618;27;20097;-76
2023/09/21 11:24:36;;;;;;;5.50;1.65;;;14.30;99.90;;;;;;5132999;27;20019;-76
2023/09/21 11:27:14;;;;;;;4.53;1.23;;;14.40;99.90;;;;;;5132386;27;20043;-77
2023/09/21 11:29:41;;;;;;;5.90;1.50;;;14.50;99.90;;;;;;5132976;27;20045;-77
2023/09/21 11:32:17;;;;;;;3.22;1.08;;;14.60;99.90;;;;;;5132025;27;20103;-76
2023/09/21 11:34:44;;;;;;;4.75;1.00;;;14.70;99.90;;;;;;5132707;27;20055;-76
2023/09/21 11:37:12;;;;;;;4.20;1.30;;;14.70;99.90;;;;;;5132407;27;20114;-75
2023/09/21 11:39:46;;;;;;;5.70;1.38;;;14.80;99.90;;;;;;5132581;27;20103;-77
2023/09/21 11:42:12;;;;;;;2.15;0.90;;;14.80;99.90;;;;;;5132694;27;20402;-77
2023/09/21 11:44:38;;;;;;;6.78;1.80;;;14.80;99.90;;;;;;5132176;27;20483;-78
2023/09/21 11:47:11;;;;;;;2.60;1.27;;;14.80;99.90;;;;;;5113616;28;20071;-77
2023/09/21 11:49:38;;;;;;;3.42;1.20;;;14.70;99.90;;;;;;5133084;28;20027;-78
2023/09/21 11:52:04;;;;;;;4.68;1.40;;;14.80;99.90;;;;;;5132373;28;20125;-77
2023/09/21 11:54:35;;;;;;;3.20;1.20;;;14.80;99.90;;;;;;5114737;28;20031;-77
2023/09/21 11:57:04;;;;;;;6.65;1.25;;;15.00;99.90;;;;;;5113558;28;20495;-77
2023/09/21 11:59:34;;;;;;;3.65;1.15;;;15.10;99.90;;;;;;5130852;28;20388;-77
2023/09/21 12:02:01;;;;;;;3.58;1.15;;;15.30;99.90;;;;;;5130992;28;20024;-77
2023/09/21 12:04:31;;;;;;;5.03;1.30;;;15.30;99.90;;;;;;5112608;28;20055;-77
2023/09/21 12:06:58;;;;;;;3.67;0.90;;;15.30;99.90;;;;;;5130544;28;20105;-78
2023/09/21 12:09:23;;;;;;;3.97;1.10;;;15.30;99.90;;;;;;5131423;28;20453;-77
2023/09/21 12:11:54;;;;;;;4.15;1.20;;;15.30;99.90;;;;;;5131145;28;20030;-79
2023/09/21 12:14:21;;;;;;;3.75;1.50;;;15.30;99.90;;;;;;5131502;28;20098;-78
2023/09/21 12:16:50;;;;;;;3.53;1.30;;;15.20;99.90;;;;;;5131328;28;20035;-78
2023/09/21 12:19:18;;;;;;;5.70;1.80;;;15.00;99.90;;;;;;5131267;28;20019;-77
2023/09/21 12:21:48;;;;;;;2.95;1.30;;;14.90;99.90;;;;;;5112849;28;20101;-77
2023/09/21 12:24:14;;;;;;;4.55;1.45;;;15.00;99.90;;;;;;5130491;28;20019;-77
2023/09/21 12:26:41;;;;;;;3.13;1.60;;;15.00;99.90;;;;;;5131500;28;20419;-78
2023/09/21 12:29:10;;;;;;;5.97;1.50;;;14.90;99.90;;;;;;5132181;27;20479;-77
2023/09/21 12:31:37;;;;;;;2.47;1.33;;;14.90;99.90;;;;;;5135282;27;20054;-78
2023/09/21 12:34:03;;;;;;;2.72;1.20;;;14.80;99.90;;;;;;5134730;27;20027;-77
2023/09/21 12:36:29;;;;;;;2.78;1.30;;;14.90;99.90;;;;;;5123099;27;20039;-77
2023/09/21 12:38:54;;;;;;;2.10;1.15;;;15.00;99.90;;;;;;5113953;28;20094;-78
2023/09/21 12:41:20;;;;;;;2.33;0.90;;;15.10;99.90;;;;;;5096029;28;20119;-77
2023/09/21 12:43:46;;;;;;;2.80;1.27;;;15.20;99.90;;;;;;5114559;28;20440;-77
2023/09/21 12:46:12;;;;;;;2.05;1.20;;;15.30;99.90;;;;;;5113567;28;20080;-77
2023/09/21 12:48:38;;;;;;;2.08;0.93;;;15.30;99.90;;;;;;5114150;28;20379;-77
2023/09/21 12:51:04;;;;;;;2.42;0.75;;;15.40;99.90;;;;;;5113762;28;20027;-77
2023/09/21 12:53:30;;;;;;;2.65;0.90;;;15.40;99.90;;;;;;5114239;28;20468;-77
2023/09/21 12:55:57;;;;;;;4.78;1.13;;;15.50;99.90;;;;;;5113454;28;20186;-78
2023/09/21 12:58:23;;;;;;;4.25;1.20;;;15.50;99.90;;;;;;5114327;28;20035;-77